createdAt,value
2022-12-19T00:03:59.020Z,16.90
2022-12-19T00:14:15.920Z,16.40
2022-12-19T00:24:21.988Z,18.70
2022-12-19T00:34:27.817Z,17.40
2022-12-19T00:44:33.598Z,17.60
2022-12-19T00:54:39.250Z,17.70
2022-12-19T01:04:45.546Z,22.80
2022-12-19T01:14:52.938Z,18.50
2022-12-19T01:24:58.626Z,20.70
2022-12-19T01:35:04.645Z,21.70
2022-12-19T01:45:43.576Z,21.90
2022-12-19T01:55:54.278Z,21.30
2022-12-19T02:06:01.804Z,21.20
2022-12-19T02:16:20.165Z,18.60
2022-12-19T02:26:49.144Z,19.90
2022-12-19T02:36:58.162Z,17.70
2022-12-19T02:47:06.571Z,18.20
2022-12-19T02:57:20.952Z,19.90
2022-12-19T03:07:37.469Z,18.40
2022-12-19T03:17:43.427Z,17.70
2022-12-19T03:27:51.705Z,19.50
2022-12-19T03:38:02.924Z,19.60
2022-12-19T03:48:12.356Z,18.90
2022-12-19T03:58:25.370Z,20.90
2022-12-19T04:08:32.814Z,21.80
2022-12-19T04:18:42.590Z,21.00
2022-12-19T04:28:51.471Z,22.50
2022-12-19T04:38:57.371Z,21.70
2022-12-19T04:49:03.333Z,21.30
2022-12-19T04:59:09.050Z,23.50
2022-12-19T05:09:14.838Z,22.30
2022-12-19T05:19:20.425Z,24.30
2022-12-19T05:29:26.354Z,25.60
2022-12-19T05:39:32.301Z,23.60
2022-12-19T05:49:41.662Z,26.00
2022-12-19T05:59:47.423Z,24.20
2022-12-19T06:09:53.128Z,27.80
2022-12-19T06:19:58.833Z,25.50
2022-12-19T06:30:04.750Z,27.20
2022-12-19T06:40:33.945Z,28.50
2022-12-19T06:50:39.651Z,24.10
2022-12-19T07:00:45.258Z,27.20
2022-12-19T07:10:51.045Z,27.90
2022-12-19T07:20:57.709Z,27.80
2022-12-19T07:31:03.771Z,26.60
2022-12-19T07:41:09.624Z,26.70
2022-12-19T07:51:15.382Z,27.50
2022-12-19T08:01:21.504Z,21.70
2022-12-19T08:11:29.445Z,23.40
2022-12-19T08:21:35.267Z,23.20
2022-12-19T08:31:41.097Z,24.50
2022-12-19T08:41:46.796Z,25.00
2022-12-19T08:51:52.436Z,23.70
2022-12-19T09:01:58.401Z,23.00
2022-12-19T09:12:04.659Z,24.40
2022-12-19T09:22:10.316Z,23.80
2022-12-19T09:32:16.027Z,21.50
2022-12-19T09:42:41.233Z,21.70
2022-12-19T09:52:56.369Z,22.10
2022-12-19T10:03:06.557Z,23.70
2022-12-19T10:13:22.196Z,24.50
2022-12-19T10:23:50.557Z,26.80
2022-12-19T10:34:03.667Z,22.70
2022-12-19T10:44:11.204Z,22.30
2022-12-19T10:54:18.176Z,24.30
2022-12-19T11:04:34.432Z,21.60
2022-12-19T11:18:23.809Z,20.70
2022-12-19T11:29:38.526Z,21.90
2022-12-19T11:35:51.349Z,22.40
2022-12-19T11:46:05.781Z,17.70
2022-12-19T11:56:16.358Z,18.00
2022-12-19T12:06:31.140Z,15.50
2022-12-19T12:28:20.374Z,16.30
2022-12-19T12:31:42.781Z,18.20
2022-12-19T12:38:21.517Z,16.20
2022-12-19T12:48:37.704Z,15.10
2022-12-19T12:59:01.435Z,16.50
2022-12-19T13:09:25.673Z,17.80
2022-12-19T13:19:33.047Z,20.90
2022-12-19T13:29:54.418Z,21.50
2022-12-19T13:40:14.246Z,21.90
2022-12-19T13:50:30.953Z,21.90
2022-12-19T14:00:43.164Z,20.60
2022-12-19T14:11:33.616Z,21.20
2022-12-19T14:22:11.848Z,24.70
2022-12-19T14:31:58.393Z,22.80
2022-12-19T14:43:55.504Z,23.10
2022-12-19T14:54:26.804Z,25.10
2022-12-19T15:04:33.670Z,24.70
2022-12-19T15:14:50.792Z,25.70
2022-12-19T15:24:50.880Z,26.00
2022-12-19T15:34:56.606Z,23.80
2022-12-19T15:45:03.077Z,26.40
2022-12-19T15:55:13.549Z,26.50
2022-12-19T16:05:21.138Z,26.90
2022-12-19T16:15:30.053Z,26.80
2022-12-19T16:25:38.156Z,28.80
2022-12-19T16:46:16.488Z,30.30
2022-12-19T16:56:29.321Z,30.30
2022-12-19T17:06:35.072Z,28.40
2022-12-19T17:16:41.009Z,28.40
2022-12-19T17:26:47.540Z,30.90
2022-12-19T17:36:53.430Z,30.50
2022-12-19T17:46:59.658Z,30.40
2022-12-19T17:57:05.594Z,33.80
2022-12-19T18:07:16.471Z,32.40
2022-12-19T18:17:26.369Z,33.90
2022-12-19T18:27:32.325Z,30.50
2022-12-19T18:37:38.012Z,32.10
2022-12-19T18:57:54.509Z,34.40
2022-12-19T19:08:03.069Z,32.10
2022-12-19T19:18:10.289Z,34.70
2022-12-19T19:28:16.242Z,35.40
2022-12-19T19:48:27.024Z,31.20
2022-12-19T19:58:33.197Z,25.90
2022-12-19T20:08:40.696Z,23.40
2022-12-19T20:18:50.116Z,23.60
2022-12-19T20:28:56.855Z,20.20
2022-12-19T20:39:02.700Z,19.60
2022-12-19T20:49:08.472Z,19.50
2022-12-19T20:59:14.274Z,17.70
2022-12-19T21:09:20.115Z,18.30
2022-12-19T21:19:25.865Z,16.80
2022-12-19T21:29:31.586Z,17.60
2022-12-19T21:39:37.460Z,18.50
2022-12-19T21:49:43.556Z,16.00
2022-12-19T21:59:49.655Z,14.40
2022-12-19T22:09:55.510Z,15.20
2022-12-19T22:20:04.752Z,14.10
2022-12-19T22:30:15.820Z,15.30
2022-12-19T22:40:21.571Z,15.30
2022-12-19T22:50:27.298Z,13.90
2022-12-19T23:00:33.741Z,14.80
2022-12-19T23:10:40.163Z,15.00
2022-12-19T23:20:46.329Z,14.10
2022-12-19T23:30:52.176Z,11.20
2022-12-19T23:41:03.008Z,15.60
2022-12-19T23:51:11.501Z,13.30
